createdAt,value
2017-03-10T00:00:18.622Z,20.62
2017-03-10T00:01:27.805Z,20.58
2017-03-10T00:02:37.786Z,20.6
2017-03-10T00:03:47.354Z,20.56
2017-03-10T00:04:56.179Z,20.62
2017-03-10T00:06:05.361Z,20.52
2017-03-10T00:07:14.175Z,20.59
2017-03-10T00:08:23.781Z,20.65
2017-03-10T00:09:32.584Z,20.58
2017-03-10T00:10:41.390Z,20.58
2017-03-10T00:11:50.584Z,20.62
2017-03-10T00:12:59.387Z,20.62
2017-03-10T00:14:08.204Z,20.62
2017-03-10T00:15:17.357Z,20.6
2017-03-10T00:16:26.176Z,20.59
2017-03-10T00:17:34.969Z,20.63
2017-03-10T00:18:44.031Z,20.62
2017-03-10T00:19:53.248Z,20.4
2017-03-10T00:21:02.450Z,20.5
2017-03-10T00:22:11.277Z,20.59
2017-03-10T00:23:20.074Z,20.48
2017-03-10T00:24:29.232Z,20.44
2017-03-10T00:25:38.408Z,20.5
2017-03-10T00:26:47.572Z,20.48
2017-03-10T00:27:56.734Z,20.48
2017-03-10T00:29:05.538Z,20.47
2017-03-10T00:30:14.743Z,20.51
2017-03-10T00:31:23.532Z,20.43
2017-03-10T00:32:32.729Z,20.48
2017-03-10T00:33:41.521Z,20.44
2017-03-10T00:34:50.362Z,20.51
2017-03-10T00:36:00.364Z,20.44
2017-03-10T00:37:10.718Z,20.52
2017-03-10T00:38:19.519Z,20.47
2017-03-10T00:39:29.096Z,20.51
2017-03-10T00:40:38.133Z,20.51
2017-03-10T00:41:47.317Z,20.51
2017-03-10T00:42:56.123Z,20.43
2017-03-10T00:44:04.950Z,20.44
2017-03-10T00:45:13.745Z,20.44
2017-03-10T00:46:22.552Z,20.41
2017-03-10T00:47:31.988Z,20.44
2017-03-10T00:48:40.790Z,20.4
2017-03-10T00:49:50.190Z,20.36
2017-03-10T00:50:58.977Z,20.4
2017-03-10T00:52:07.790Z,20.37
2017-03-10T00:53:16.987Z,20.41
2017-03-10T00:54:26.180Z,20.39
2017-03-10T00:55:36.139Z,20.41
2017-03-10T00:56:45.325Z,20.41
2017-03-10T00:57:54.346Z,20.34
2017-03-10T00:59:03.539Z,20.4
2017-03-10T01:00:13.322Z,20.36
2017-03-10T01:01:22.077Z,20.31
2017-03-10T01:02:32.385Z,20.36
2017-03-10T01:03:41.570Z,20.37
2017-03-10T01:04:50.339Z,20.34
2017-03-10T01:05:59.545Z,20.32
2017-03-10T01:07:09.146Z,20.36
2017-03-10T01:08:18.345Z,20.31
2017-03-10T01:09:27.941Z,20.32
2017-03-10T01:10:36.750Z,20.32
2017-03-10T01:11:45.954Z,20.36
2017-03-10T01:12:55.547Z,20.26
2017-03-10T01:14:04.702Z,20.34
2017-03-10T01:15:13.478Z,20.37
2017-03-10T01:16:22.675Z,20.34
2017-03-10T01:17:32.673Z,20.34
2017-03-10T01:18:41.483Z,20.25
2017-03-10T01:19:50.257Z,20.28
2017-03-10T01:20:59.448Z,20.22
2017-03-10T01:22:08.658Z,20.26
2017-03-10T01:23:18.233Z,20.24
2017-03-10T01:24:28.025Z,20.26
2017-03-10T01:25:37.563Z,20.29
2017-03-10T01:26:46.375Z,20.28
2017-03-10T01:27:55.563Z,20.26
2017-03-10T01:29:04.743Z,20.22
2017-03-10T01:30:13.563Z,20.19
2017-03-10T01:31:22.351Z,20.22
2017-03-10T01:32:32.319Z,20.19
2017-03-10T01:33:41.850Z,20.26
2017-03-10T01:34:51.409Z,20.21
2017-03-10T01:36:01.378Z,20.21
2017-03-10T01:37:10.589Z,20.19
2017-03-10T01:38:19.733Z,20.19
2017-03-10T01:39:29.243Z,20.13
2017-03-10T01:40:38.030Z,20.26
2017-03-10T01:41:47.181Z,20.22
2017-03-10T01:42:56.742Z,20.16
2017-03-10T01:44:05.879Z,20.19
2017-03-10T01:45:14.611Z,20.14
2017-03-10T01:46:23.385Z,20.24
2017-03-10T01:47:32.960Z,20.07
2017-03-10T01:48:41.740Z,20.14
2017-03-10T01:49:50.522Z,20.13
2017-03-10T01:50:59.330Z,20.16
2017-03-10T01:52:08.512Z,20.1
2017-03-10T01:53:17.322Z,20.14
2017-03-10T01:54:26.119Z,20.11
2017-03-10T01:55:35.328Z,20.11
2017-03-10T01:56:44.340Z,20.07
2017-03-10T01:57:53.557Z,20.18
2017-03-10T01:59:03.171Z,20.1
2017-03-10T02:00:12.354Z,20.13
2017-03-10T02:01:21.121Z,20.07
2017-03-10T02:02:29.956Z,20.14
2017-03-10T02:03:38.801Z,20.03
2017-03-10T02:04:48.985Z,20.04
2017-03-10T02:05:57.793Z,20.09
2017-03-10T02:07:06.582Z,20.06
2017-03-10T02:08:15.787Z,20.11
2017-03-10T02:09:25.367Z,20.02
2017-03-10T02:10:34.549Z,20.02
2017-03-10T02:11:43.732Z,20.03
2017-03-10T02:12:52.569Z,20.07
2017-03-10T02:14:01.483Z,20.07
2017-03-10T02:15:11.459Z,20.04
2017-03-10T02:16:20.849Z,20.09
2017-03-10T02:17:30.430Z,20.04
2017-03-10T02:18:39.621Z,19.99
2017-03-10T02:19:48.768Z,20.07
2017-03-10T02:20:58.313Z,20.06
2017-03-10T02:22:07.518Z,20
2017-03-10T02:23:16.340Z,20.04
2017-03-10T02:24:25.164Z,20.02
2017-03-10T02:25:35.401Z,20.02
2017-03-10T02:26:44.186Z,20.02
2017-03-10T02:27:53.355Z,20.07
2017-03-10T02:29:02.555Z,20.04
2017-03-10T02:30:11.752Z,20.06
2017-03-10T02:31:20.539Z,19.96
2017-03-10T02:32:30.182Z,20.06
2017-03-10T02:33:39.326Z,19.96
2017-03-10T02:34:48.487Z,19.96
2017-03-10T02:35:58.065Z,19.94
2017-03-10T02:37:07.261Z,19.94
2017-03-10T02:38:17.077Z,20.04
2017-03-10T02:39:25.881Z,19.95
2017-03-10T02:40:35.475Z,20
2017-03-10T02:41:44.673Z,19.96
2017-03-10T02:42:53.858Z,19.95
2017-03-10T02:44:03.002Z,19.94
2017-03-10T02:45:12.149Z,19.95
2017-03-10T02:46:21.704Z,19.95
2017-03-10T02:47:30.923Z,19.95
2017-03-10T02:48:40.147Z,19.92
2017-03-10T02:49:49.751Z,19.95
2017-03-10T02:50:58.593Z,19.88
2017-03-10T02:52:07.794Z,19.95
2017-03-10T02:53:16.742Z,19.92
2017-03-10T02:54:25.539Z,19.95
2017-03-10T02:55:34.734Z,19.91
2017-03-10T02:56:43.909Z,19.85
2017-03-10T02:57:53.092Z,19.82
2017-03-10T02:59:02.693Z,19.84
2017-03-10T03:00:11.509Z,19.91
2017-03-10T03:01:21.088Z,19.86
2017-03-10T03:02:30.676Z,19.84
2017-03-10T03:03:39.890Z,19.88
2017-03-10T03:04:49.496Z,19.86
2017-03-10T03:05:58.307Z,19.82
2017-03-10T03:07:07.491Z,19.88
2017-03-10T03:08:17.120Z,19.86
2017-03-10T03:09:25.921Z,19.82
2017-03-10T03:10:34.722Z,19.84
2017-03-10T03:11:43.914Z,19.82
2017-03-10T03:12:52.745Z,19.85
2017-03-10T03:14:01.540Z,19.82
2017-03-10T03:15:10.338Z,19.82
2017-03-10T03:16:19.191Z,19.84
2017-03-10T03:17:28.727Z,19.79
2017-03-10T03:18:37.882Z,19.79
2017-03-10T03:19:47.281Z,19.82
2017-03-10T03:20:56.456Z,19.79
2017-03-10T03:22:05.282Z,19.79
2017-03-10T03:23:14.090Z,19.76
2017-03-10T03:24:23.701Z,19.79
2017-03-10T03:25:33.331Z,19.81
2017-03-10T03:26:42.557Z,19.84
2017-03-10T03:27:51.358Z,19.79
2017-03-10T03:29:00.134Z,19.84
2017-03-10T03:30:08.941Z,19.76
2017-03-10T03:31:17.710Z,19.79
2017-03-10T03:32:26.882Z,19.84
2017-03-10T03:33:36.084Z,19.77
2017-03-10T03:34:45.259Z,19.73
2017-03-10T03:35:54.864Z,19.71
2017-03-10T03:37:04.008Z,19.74
2017-03-10T03:38:12.861Z,19.79
2017-03-10T03:39:22.054Z,19.77
2017-03-10T03:40:32.052Z,19.76
2017-03-10T03:41:41.066Z,19.77
2017-03-10T03:42:50.244Z,19.77
2017-03-10T03:43:59.469Z,19.73
2017-03-10T03:45:08.232Z,19.76
2017-03-10T03:46:17.416Z,19.71
2017-03-10T03:47:26.214Z,19.76
2017-03-10T03:48:35.433Z,19.7
2017-03-10T03:49:44.638Z,19.73
2017-03-10T03:50:53.826Z,19.66
2017-03-10T03:52:03.221Z,19.67
2017-03-10T03:53:11.997Z,19.73
2017-03-10T03:54:21.125Z,19.7
2017-03-10T03:55:30.683Z,19.62
2017-03-10T03:56:39.859Z,19.7
2017-03-10T03:57:49.052Z,19.63
2017-03-10T03:58:58.258Z,19.69
2017-03-10T04:00:07.454Z,19.64
2017-03-10T04:01:16.248Z,19.69
2017-03-10T04:02:25.469Z,19.63
2017-03-10T04:03:34.616Z,19.66
2017-03-10T04:04:43.785Z,19.59
2017-03-10T04:05:52.559Z,19.64
2017-03-10T04:07:02.105Z,19.64
2017-03-10T04:08:11.599Z,19.64
2017-03-10T04:09:20.766Z,19.66
2017-03-10T04:10:29.553Z,19.7
2017-03-10T04:11:38.740Z,19.63
2017-03-10T04:12:47.557Z,19.69
2017-03-10T04:13:56.359Z,19.67
2017-03-10T04:15:05.196Z,19.63
2017-03-10T04:16:13.972Z,19.63
2017-03-10T04:17:22.715Z,19.56
2017-03-10T04:18:31.741Z,19.56
2017-03-10T04:19:40.909Z,19.69
2017-03-10T04:20:50.066Z,19.59
2017-03-10T04:21:59.254Z,19.67
2017-03-10T04:23:08.450Z,19.66
2017-03-10T04:24:18.028Z,19.59
2017-03-10T04:25:27.608Z,19.63
2017-03-10T04:26:36.793Z,19.63
2017-03-10T04:27:46.369Z,19.63
2017-03-10T04:28:55.526Z,19.66
2017-03-10T04:30:04.681Z,19.59
2017-03-10T04:31:13.491Z,19.63
2017-03-10T04:32:23.888Z,19.67
2017-03-10T04:33:32.694Z,19.63
2017-03-10T04:34:41.475Z,19.63
2017-03-10T04:35:50.659Z,19.58
2017-03-10T04:37:00.619Z,19.62
2017-03-10T04:38:10.176Z,19.62
2017-03-10T04:39:19.176Z,19.58
2017-03-10T04:40:28.393Z,19.63
2017-03-10T04:41:37.585Z,19.64
2017-03-10T04:42:46.792Z,19.64
2017-03-10T04:43:55.995Z,19.58
2017-03-10T04:45:05.193Z,19.56
2017-03-10T04:46:14.000Z,19.58
2017-03-10T04:47:22.759Z,19.66
2017-03-10T04:48:32.212Z,19.63
2017-03-10T04:49:41.396Z,19.51
2017-03-10T04:50:50.534Z,19.55
2017-03-10T04:51:59.311Z,19.58
2017-03-10T04:53:08.497Z,19.52
2017-03-10T04:54:17.273Z,19.54
2017-03-10T04:55:27.222Z,19.58
2017-03-10T04:56:36.352Z,19.54
2017-03-10T04:57:45.516Z,19.52
2017-03-10T04:58:54.329Z,19.51
2017-03-10T05:00:03.478Z,19.62
2017-03-10T05:01:13.041Z,19.52
2017-03-10T05:02:21.800Z,19.56
2017-03-10T05:03:31.777Z,19.59
2017-03-10T05:04:40.605Z,19.51
2017-03-10T05:05:50.555Z,19.49
2017-03-10T05:07:00.146Z,19.52
2017-03-10T05:08:10.111Z,19.54
2017-03-10T05:09:19.313Z,19.52
2017-03-10T05:10:28.499Z,19.51
2017-03-10T05:11:37.302Z,19.55
2017-03-10T05:12:46.879Z,19.56
2017-03-10T05:13:56.040Z,19.52
2017-03-10T05:15:04.803Z,19.51
2017-03-10T05:16:14.395Z,19.56
2017-03-10T05:17:23.587Z,19.55
2017-03-10T05:18:33.161Z,19.48
2017-03-10T05:19:42.361Z,19.56
2017-03-10T05:20:51.168Z,19.54
2017-03-10T05:22:01.152Z,19.59
2017-03-10T05:23:09.961Z,19.62
2017-03-10T05:24:19.147Z,19.52
2017-03-10T05:25:27.949Z,19.51
2017-03-10T05:26:36.755Z,19.63
2017-03-10T05:27:45.568Z,19.54
2017-03-10T05:28:54.742Z,19.49
2017-03-10T05:30:03.552Z,19.64
2017-03-10T05:31:13.114Z,19.64
2017-03-10T05:32:22.686Z,19.59
2017-03-10T05:33:31.501Z,19.62
2017-03-10T05:34:41.101Z,19.71
2017-03-10T05:35:50.297Z,19.62
2017-03-10T05:36:59.777Z,19.62
2017-03-10T05:38:09.348Z,19.69
2017-03-10T05:39:18.504Z,19.63
2017-03-10T05:40:27.676Z,19.66
2017-03-10T05:41:36.482Z,19.76
2017-03-10T05:42:46.080Z,19.67
2017-03-10T05:43:54.898Z,19.69
2017-03-10T05:45:04.108Z,19.73
2017-03-10T05:46:12.921Z,19.66
2017-03-10T05:47:22.094Z,19.71
2017-03-10T05:48:31.676Z,19.76
2017-03-10T05:49:40.469Z,19.73
2017-03-10T05:50:50.035Z,19.73
2017-03-10T05:51:58.824Z,19.71
2017-03-10T05:53:08.019Z,19.77
2017-03-10T05:54:16.820Z,19.76
2017-03-10T05:55:26.401Z,19.79
2017-03-10T05:56:35.591Z,19.77
2017-03-10T05:57:44.765Z,19.76
2017-03-10T05:58:53.568Z,19.84
2017-03-10T06:00:02.758Z,19.86
2017-03-10T06:01:12.380Z,19.86
2017-03-10T06:02:21.181Z,19.88
2017-03-10T06:03:30.390Z,19.88
2017-03-10T06:04:39.211Z,19.88
2017-03-10T06:05:48.778Z,19.84
2017-03-10T06:06:57.593Z,19.84
2017-03-10T06:08:06.788Z,19.95
2017-03-10T06:09:15.987Z,19.95
2017-03-10T06:10:24.795Z,19.95
2017-03-10T06:11:34.747Z,20
2017-03-10T06:12:44.645Z,19.92
2017-03-10T06:13:53.442Z,20
2017-03-10T06:15:02.610Z,19.99
2017-03-10T06:16:11.756Z,20.06
2017-03-10T06:17:20.548Z,20
2017-03-10T06:18:29.303Z,19.99
2017-03-10T06:19:38.817Z,20.02
2017-03-10T06:20:48.423Z,20.07
2017-03-10T06:21:57.597Z,20.06
2017-03-10T06:23:06.851Z,20.02
2017-03-10T06:24:16.440Z,20.14
2017-03-10T06:25:25.198Z,20.09
2017-03-10T06:26:33.986Z,20.13
2017-03-10T06:27:43.131Z,20.16
2017-03-10T06:28:52.303Z,20.14
2017-03-10T06:30:01.507Z,20.16
2017-03-10T06:31:11.084Z,20.21
2017-03-10T06:32:19.879Z,20.21
2017-03-10T06:33:29.897Z,20.25
2017-03-10T06:34:39.102Z,20.29
2017-03-10T06:35:48.633Z,20.28
2017-03-10T06:36:57.406Z,20.26
2017-03-10T06:38:06.266Z,20.34
2017-03-10T06:39:16.221Z,20.37
2017-03-10T06:40:25.441Z,20.34
2017-03-10T06:41:35.151Z,20.39
2017-03-10T06:42:44.318Z,20.39
2017-03-10T06:44:08.243Z,20.48
2017-03-10T06:45:17.058Z,20.43
2017-03-10T06:46:26.584Z,20.44
2017-03-10T06:47:35.328Z,20.41
2017-03-10T06:48:44.075Z,20.47
2017-03-10T06:49:53.196Z,20.52
2017-03-10T06:51:01.968Z,20.41
2017-03-10T06:52:11.573Z,20.47
2017-03-10T06:53:20.394Z,20.48
2017-03-10T06:54:29.618Z,20.58
2017-03-10T06:55:39.208Z,20.63
2017-03-10T06:56:48.400Z,20.56
2017-03-10T06:57:57.161Z,20.6
2017-03-10T06:59:06.279Z,20.65
2017-03-10T07:00:15.318Z,20.67
2017-03-10T07:01:24.131Z,20.7
2017-03-10T07:02:33.327Z,20.74
2017-03-10T07:03:42.538Z,20.8
2017-03-10T07:04:51.728Z,20.82
2017-03-10T07:06:00.879Z,20.9
2017-03-10T07:07:10.448Z,20.92
2017-03-10T07:08:19.253Z,20.95
2017-03-10T07:09:28.490Z,20.93
2017-03-10T07:10:37.546Z,20.99
2017-03-10T07:11:46.316Z,20.99
2017-03-10T07:12:55.104Z,20.99
2017-03-10T07:14:03.916Z,20.99
2017-03-10T07:15:13.122Z,21.06
2017-03-10T07:16:21.935Z,21.06
2017-03-10T07:17:30.738Z,21.11
2017-03-10T07:18:39.954Z,21.24
2017-03-10T07:19:49.160Z,21.4
2017-03-10T07:20:58.697Z,21.43
2017-03-10T07:22:08.129Z,21.52
2017-03-10T07:23:17.718Z,21.52
2017-03-10T07:24:27.265Z,21.6
2017-03-10T07:25:36.443Z,21.55
2017-03-10T07:26:45.246Z,21.79
2017-03-10T07:27:54.456Z,21.88
2017-03-10T07:29:03.644Z,21.89
2017-03-10T07:30:12.475Z,21.96
2017-03-10T07:31:21.724Z,22.15
2017-03-10T07:32:30.772Z,22.29
2017-03-10T07:33:39.592Z,22.59
2017-03-10T07:34:48.376Z,22.87
2017-03-10T07:35:57.759Z,23.24
2017-03-10T07:37:07.340Z,23.5
2017-03-10T07:38:16.157Z,23.84
2017-03-10T07:39:25.340Z,23.98
2017-03-10T07:40:34.149Z,24.24
2017-03-10T07:41:43.355Z,24.39
2017-03-10T07:42:53.259Z,24.53
2017-03-10T07:44:02.030Z,24.61
2017-03-10T07:45:10.816Z,24.69
2017-03-10T07:46:19.638Z,24.89
2017-03-10T07:47:28.420Z,24.86
2017-03-10T07:48:37.622Z,24.91
2017-03-10T07:49:46.762Z,24.91
2017-03-10T07:50:55.950Z,24.91
2017-03-10T07:52:05.169Z,24.98
2017-03-10T07:53:14.361Z,25.03
2017-03-10T07:54:23.436Z,24.99
2017-03-10T07:55:32.252Z,25.04
2017-03-10T07:56:41.445Z,25.03
2017-03-10T07:57:50.646Z,25.07
2017-03-10T07:58:59.463Z,25.08
2017-03-10T08:00:08.694Z,24.92
2017-03-10T08:01:17.868Z,24.88
2017-03-10T08:02:27.038Z,24.88
2017-03-10T08:03:36.147Z,24.86
2017-03-10T08:04:48.361Z,24.8
2017-03-10T08:05:57.129Z,24.78
2017-03-10T08:07:05.898Z,24.74
2017-03-10T08:08:15.486Z,24.7
2017-03-10T08:09:24.286Z,24.69
2017-03-10T08:10:33.080Z,24.63
2017-03-10T08:11:42.279Z,24.54
2017-03-10T08:12:51.462Z,24.48
2017-03-10T08:14:00.655Z,24.35
2017-03-10T08:15:09.844Z,24.29
2017-03-10T08:16:19.033Z,24.24
2017-03-10T08:17:28.033Z,24.21
2017-03-10T08:18:36.792Z,24.16
2017-03-10T08:19:45.551Z,24.06
2017-03-10T08:20:55.099Z,24.06
2017-03-10T08:22:05.065Z,24.13
2017-03-10T08:23:13.867Z,24.06
2017-03-10T08:24:23.471Z,24.17
2017-03-10T08:25:32.293Z,24.18
2017-03-10T08:26:41.480Z,24.23
2017-03-10T08:27:51.076Z,24.29
2017-03-10T08:28:59.891Z,24.26
2017-03-10T08:30:08.717Z,24.28
2017-03-10T08:31:17.479Z,24.23
2017-03-10T08:32:26.547Z,24.24
2017-03-10T08:33:35.322Z,24.26
2017-03-10T08:34:44.487Z,24.21
2017-03-10T08:35:53.283Z,24.11
2017-03-10T08:37:02.065Z,24.05
2017-03-10T08:38:10.890Z,24.03
2017-03-10T08:39:19.701Z,23.96
2017-03-10T08:40:28.904Z,23.92
2017-03-10T08:41:38.086Z,23.91
2017-03-10T08:42:47.275Z,23.93
2017-03-10T08:43:56.098Z,23.92
2017-03-10T08:45:05.687Z,23.95
2017-03-10T08:46:14.542Z,23.95
2017-03-10T08:47:23.747Z,23.88
2017-03-10T08:48:32.550Z,23.84
2017-03-10T08:49:41.383Z,23.74
2017-03-10T08:50:50.216Z,23.74
2017-03-10T08:51:59.808Z,23.69
2017-03-10T08:53:08.613Z,23.63
2017-03-10T08:54:17.808Z,23.66
2017-03-10T08:55:27.007Z,23.66
2017-03-10T08:56:37.658Z,23.77
2017-03-10T08:57:46.846Z,23.88
2017-03-10T08:58:56.034Z,24.01
2017-03-10T09:00:05.187Z,24.2
2017-03-10T09:01:13.977Z,24.24
2017-03-10T09:02:22.743Z,24.24
2017-03-10T09:03:31.854Z,24.32
2017-03-10T09:04:41.000Z,24.35
2017-03-10T09:05:49.981Z,24.53
2017-03-10T09:06:59.528Z,24.51
2017-03-10T09:08:09.075Z,24.45
2017-03-10T09:09:18.242Z,24.33
2017-03-10T09:10:27.829Z,24.42
2017-03-10T09:11:36.655Z,24.32
2017-03-10T09:12:45.852Z,24.39
2017-03-10T09:13:55.058Z,24.51
2017-03-10T09:15:03.864Z,24.48
2017-03-10T09:16:13.452Z,24.68
2017-03-10T09:17:23.028Z,25.01
2017-03-10T09:18:32.965Z,25.38
2017-03-10T09:19:41.779Z,25.77
2017-03-10T09:20:50.966Z,25.8
2017-03-10T09:21:59.794Z,25.8
2017-03-10T09:23:08.957Z,25.77
2017-03-10T09:24:17.731Z,25.59
2017-03-10T09:25:26.891Z,25.51
2017-03-10T09:26:36.457Z,25.35
2017-03-10T09:27:45.263Z,25.17
2017-03-10T09:28:54.056Z,25.03
2017-03-10T09:30:03.480Z,24.88
2017-03-10T09:31:13.037Z,24.84
2017-03-10T09:32:21.860Z,24.74
2017-03-10T09:33:30.683Z,24.68
2017-03-10T09:34:39.801Z,24.66
2017-03-10T09:35:48.617Z,24.57
2017-03-10T09:36:57.799Z,24.65
2017-03-10T09:38:07.385Z,24.61
2017-03-10T09:39:16.539Z,24.8
2017-03-10T09:40:25.700Z,25.25
2017-03-10T09:41:34.954Z,25.77
2017-03-10T09:42:43.735Z,26.21
2017-03-10T09:43:52.532Z,26.29
2017-03-10T09:45:02.508Z,26.26
2017-03-10T09:46:11.703Z,26.25
2017-03-10T09:47:20.480Z,26
2017-03-10T09:48:30.456Z,25.8
2017-03-10T09:49:40.338Z,25.9
2017-03-10T09:50:49.163Z,25.8
2017-03-10T09:51:58.369Z,25.83
2017-03-10T09:53:07.579Z,26.09
2017-03-10T09:54:16.785Z,26.68
2017-03-10T09:55:25.976Z,27.45
2017-03-10T09:56:34.891Z,28.35
2017-03-10T09:57:43.701Z,29.36
2017-03-10T09:58:52.494Z,30.25
2017-03-10T10:00:02.433Z,30.99
2017-03-10T10:01:12.400Z,31.66
2017-03-10T10:02:21.999Z,32.52
2017-03-10T10:03:31.225Z,33.28
2017-03-10T10:04:40.819Z,33.76
2017-03-10T10:05:49.599Z,34.08
2017-03-10T10:06:58.784Z,34.06
2017-03-10T10:08:07.863Z,34.03
2017-03-10T10:09:17.072Z,33.5
2017-03-10T10:10:26.251Z,32.97
2017-03-10T10:11:35.433Z,32.46
2017-03-10T10:12:44.575Z,32.82
2017-03-10T10:13:53.386Z,33.49
2017-03-10T10:15:02.983Z,34.03
2017-03-10T10:16:12.185Z,34.7
2017-03-10T10:17:21.787Z,35.08
2017-03-10T10:18:30.579Z,35.53
2017-03-10T10:19:39.852Z,36.01
2017-03-10T10:20:49.076Z,36.21
2017-03-10T10:21:57.881Z,36.27
2017-03-10T10:23:07.070Z,36.37
2017-03-10T10:24:16.260Z,36.37
2017-03-10T10:25:26.241Z,36.42
2017-03-10T10:26:35.451Z,36.46
2017-03-10T10:27:44.635Z,36.45
2017-03-10T10:28:53.408Z,36.46
2017-03-10T10:30:02.164Z,36.39
2017-03-10T10:31:11.711Z,36.12
2017-03-10T10:32:20.523Z,35.74
2017-03-10T10:33:30.487Z,35.18
2017-03-10T10:34:39.632Z,34.93
2017-03-10T10:35:49.150Z,34.62
2017-03-10T10:36:58.707Z,34.29
2017-03-10T10:38:08.291Z,34.08
2017-03-10T10:39:17.491Z,33.86
2017-03-10T10:40:26.684Z,33.61
2017-03-10T10:44:29.209Z,33.87
2017-03-10T10:45:38.387Z,34.1
2017-03-10T10:46:47.571Z,34.23
2017-03-10T10:47:56.360Z,34.47
2017-03-10T10:49:05.922Z,34.7
2017-03-10T10:52:38.350Z,35.44
2017-03-10T10:53:47.908Z,35.97
2017-03-10T10:54:57.469Z,36.54
2017-03-10T10:56:07.006Z,37.21
2017-03-10T10:57:17.315Z,37.21
2017-03-10T10:58:26.860Z,36.64
2017-03-10T10:59:36.818Z,35.95
2017-03-10T11:00:46.776Z,35.34
2017-03-10T11:01:57.349Z,34.81
2017-03-10T11:03:06.886Z,34.24
2017-03-10T11:04:16.028Z,33.69
2017-03-10T11:05:25.147Z,33.73
2017-03-10T11:06:34.699Z,34.48
2017-03-10T11:07:45.066Z,35.55
2017-03-10T11:08:54.594Z,36.59
2017-03-10T11:10:04.129Z,37.67
2017-03-10T11:11:14.462Z,38.46
2017-03-10T11:12:25.174Z,39.29
2017-03-10T11:13:35.073Z,39.92
2017-03-10T11:14:44.965Z,40.49
2017-03-10T11:15:54.517Z,40.91
2017-03-10T11:17:04.483Z,41.37
2017-03-10T11:18:14.417Z,41.78
2017-03-10T11:19:24.329Z,42.13
2017-03-10T11:20:33.848Z,42.57
2017-03-10T11:21:43.768Z,42.88
2017-03-10T11:22:54.140Z,43.13
2017-03-10T11:24:03.691Z,43.33
2017-03-10T11:25:13.652Z,43.58
2017-03-10T11:26:23.618Z,43.67
2017-03-10T11:27:33.180Z,43.89
2017-03-10T11:28:42.729Z,44.02
2017-03-10T11:29:52.662Z,44.06
2017-03-10T11:31:02.272Z,44.32
2017-03-10T11:32:11.841Z,44.48
2017-03-10T11:33:21.020Z,44.64
2017-03-10T11:34:30.224Z,44.91
2017-03-10T11:35:40.171Z,45.09
2017-03-10T11:36:50.120Z,45.29
2017-03-10T11:37:58.947Z,45.56
2017-03-10T11:39:08.518Z,45.84
2017-03-10T11:40:18.868Z,46.14
2017-03-10T11:41:28.441Z,46.32
2017-03-10T11:42:37.995Z,46.54
2017-03-10T11:43:46.761Z,46.7
2017-03-10T11:44:56.322Z,46.8
2017-03-10T11:46:05.518Z,47.04
2017-03-10T11:47:15.059Z,47.15
2017-03-10T11:48:23.830Z,47.37
2017-03-10T11:49:33.352Z,47.39
2017-03-10T11:50:42.878Z,47.56
2017-03-10T11:51:52.832Z,47.58
2017-03-10T11:53:02.360Z,47.78
2017-03-10T11:54:11.470Z,47.84
2017-03-10T11:55:21.379Z,47.84
2017-03-10T11:56:31.686Z,48.02
2017-03-10T11:57:42.397Z,48.03
2017-03-10T11:58:51.969Z,48.19
2017-03-10T12:00:01.940Z,48.18
2017-03-10T12:01:11.902Z,48.19
2017-03-10T12:02:21.089Z,48.07
2017-03-10T12:03:30.662Z,48.07
2017-03-10T12:04:40.169Z,47.9
2017-03-10T12:05:49.713Z,47.41
2017-03-10T12:06:59.662Z,46.34
2017-03-10T12:08:08.833Z,45.16
2017-03-10T12:09:18.397Z,43.83
2017-03-10T12:10:28.364Z,42.78
2017-03-10T12:11:37.937Z,41.8
2017-03-10T12:12:48.284Z,40.91
2017-03-10T12:13:58.236Z,40.15
2017-03-10T12:15:08.597Z,39.48
2017-03-10T12:16:17.800Z,38.83
2017-03-10T12:17:26.998Z,38.21
2017-03-10T12:18:37.242Z,37.71
2017-03-10T12:19:46.031Z,37.14
2017-03-10T12:20:55.236Z,36.65
2017-03-10T12:22:04.779Z,36.17
2017-03-10T12:23:14.263Z,35.8
2017-03-10T12:24:24.164Z,35.44
2017-03-10T12:25:33.710Z,35.04
2017-03-10T12:26:43.632Z,34.75
2017-03-10T12:27:53.575Z,34.36
2017-03-10T12:29:03.152Z,34.01
2017-03-10T12:30:13.057Z,33.74
2017-03-10T12:31:21.799Z,33.5
2017-03-10T12:32:31.720Z,33.19
2017-03-10T12:33:41.277Z,33.07
2017-03-10T12:34:50.452Z,32.7
2017-03-10T12:36:00.394Z,32.55
2017-03-10T12:37:09.966Z,32.3
2017-03-10T12:38:19.149Z,32.11
2017-03-10T12:39:28.699Z,31.8
2017-03-10T12:40:37.898Z,31.62
2017-03-10T12:41:47.849Z,31.43
2017-03-10T12:42:57.417Z,31.33
2017-03-10T12:44:06.995Z,31.03
2017-03-10T12:45:16.580Z,30.97
2017-03-10T12:46:26.493Z,30.75
2017-03-10T12:47:36.628Z,30.78
2017-03-10T12:48:46.183Z,30.54
2017-03-10T12:49:55.705Z,30.32
2017-03-10T12:51:04.880Z,30.3
2017-03-10T12:52:14.077Z,30.16
2017-03-10T12:53:24.023Z,30.06
2017-03-10T12:54:33.217Z,29.93
2017-03-10T12:55:42.789Z,29.79
2017-03-10T12:56:51.971Z,29.66
2017-03-10T12:58:02.275Z,29.53
2017-03-10T12:59:11.818Z,29.42
2017-03-10T13:00:23.590Z,29.35
2017-03-10T13:01:32.771Z,29.36
2017-03-10T13:02:43.116Z,29.14
2017-03-10T13:03:52.662Z,29.07
2017-03-10T13:05:02.609Z,29.01
2017-03-10T13:06:13.323Z,28.86
2017-03-10T13:07:23.288Z,28.84
2017-03-10T13:08:32.446Z,28.82
2017-03-10T13:09:41.637Z,28.75
2017-03-10T13:10:50.434Z,28.67
2017-03-10T13:11:59.611Z,28.57
2017-03-10T13:13:09.953Z,28.51
2017-03-10T13:14:19.135Z,28.45
2017-03-10T13:15:29.498Z,28.38
2017-03-10T13:16:39.477Z,28.2
2017-03-10T13:17:49.046Z,28.17
2017-03-10T13:18:58.988Z,28.14
2017-03-10T13:20:09.344Z,28.11
2017-03-10T13:21:19.333Z,28.02
2017-03-10T13:22:29.230Z,27.92
2017-03-10T13:23:39.140Z,27.86
2017-03-10T13:24:48.719Z,27.83
2017-03-10T13:25:58.698Z,27.78
2017-03-10T13:27:08.239Z,27.71
2017-03-10T13:28:18.135Z,27.67
2017-03-10T13:29:27.301Z,27.52
2017-03-10T13:30:37.248Z,27.59
2017-03-10T13:31:49.044Z,27.58
2017-03-10T13:32:58.961Z,27.51
2017-03-10T13:34:08.507Z,27.55
2017-03-10T13:35:18.839Z,27.47
2017-03-10T13:36:28.411Z,27.35
2017-03-10T13:37:38.375Z,27.35
2017-03-10T13:38:48.716Z,27.3
2017-03-10T13:39:58.293Z,27.27
2017-03-10T13:41:08.200Z,27.17
2017-03-10T13:42:17.735Z,27.21
2017-03-10T13:43:27.258Z,27.18
2017-03-10T13:44:37.175Z,27.17
2017-03-10T13:45:46.774Z,27.21
2017-03-10T13:46:55.597Z,27.17
2017-03-10T13:48:05.148Z,27.15
2017-03-10T13:49:14.710Z,27.12
2017-03-10T13:50:25.071Z,27.15
2017-03-10T13:51:34.262Z,27.12
2017-03-10T13:52:43.840Z,27.17
2017-03-10T13:53:53.780Z,27.2
2017-03-10T13:55:03.725Z,27.17
2017-03-10T13:56:13.691Z,27.18
2017-03-10T13:57:23.229Z,27.22
2017-03-10T13:58:32.391Z,27.21
2017-03-10T13:59:41.593Z,27.25
2017-03-10T14:00:51.535Z,27.18
2017-03-10T14:02:00.285Z,27.17
2017-03-10T14:03:10.117Z,27.18
2017-03-10T14:04:20.491Z,27.14
2017-03-10T14:05:30.395Z,27.07
2017-03-10T14:06:39.651Z,27.07
2017-03-10T14:07:49.174Z,27.1
2017-03-10T14:08:58.707Z,27.08
2017-03-10T14:10:09.058Z,27.08
2017-03-10T14:11:18.995Z,27.03
2017-03-10T14:12:29.721Z,27.02
2017-03-10T14:13:40.312Z,26.99
2017-03-10T14:14:49.179Z,26.9
2017-03-10T14:15:58.726Z,26.9
2017-03-10T14:17:08.654Z,26.95
2017-03-10T14:18:18.179Z,26.8
2017-03-10T14:19:27.759Z,26.8
2017-03-10T14:20:37.488Z,26.74
2017-03-10T14:21:47.057Z,26.63
2017-03-10T14:22:56.635Z,26.63
2017-03-10T14:24:06.414Z,26.58
2017-03-10T14:25:15.571Z,26.62
2017-03-10T14:26:25.523Z,26.45
2017-03-10T14:27:35.444Z,26.44
2017-03-10T14:28:44.933Z,26.45
2017-03-10T14:29:55.242Z,26.37
2017-03-10T14:31:05.184Z,26.31
2017-03-10T14:32:14.747Z,26.36
2017-03-10T14:33:24.672Z,26.36
2017-03-10T14:34:33.447Z,26.33
2017-03-10T14:35:43.392Z,26.19
2017-03-10T14:36:53.337Z,26.23
2017-03-10T14:38:02.470Z,26.1
2017-03-10T14:39:11.236Z,26.05
2017-03-10T14:40:20.417Z,26.03
2017-03-10T14:41:30.790Z,25.95
2017-03-10T14:42:40.151Z,25.91
2017-03-10T14:43:50.317Z,25.96
2017-03-10T14:45:00.280Z,25.8
2017-03-10T14:46:10.223Z,25.8
2017-03-10T14:47:19.787Z,25.85
2017-03-10T14:48:29.366Z,25.9
2017-03-10T14:49:38.534Z,25.8
2017-03-10T14:50:48.869Z,25.8
2017-03-10T14:51:58.797Z,25.78
2017-03-10T14:53:08.347Z,25.8
2017-03-10T14:54:17.942Z,25.78
2017-03-10T14:55:26.702Z,25.72
2017-03-10T14:56:36.610Z,25.78
2017-03-10T14:57:46.545Z,25.63
2017-03-10T14:58:55.723Z,25.62
2017-03-10T15:00:05.306Z,25.58
2017-03-10T15:01:14.452Z,25.6